createdAt,value
2023-03-02T00:00:47.983Z,2.84
2023-03-02T00:03:18.328Z,2.78
2023-03-02T00:05:47.286Z,2.87
2023-03-02T00:08:16.782Z,3.02
2023-03-02T00:10:43.359Z,3.08
2023-03-02T00:13:10.800Z,3.13
2023-03-02T00:15:37.283Z,3.21
2023-03-02T00:18:03.887Z,2.94
2023-03-02T00:20:30.385Z,2.85
2023-03-02T00:22:56.801Z,2.65
2023-03-02T00:25:23.342Z,2.51
2023-03-02T00:27:49.841Z,2.38
2023-03-02T00:30:16.956Z,2.37
2023-03-02T00:32:44.250Z,2.22
2023-03-02T00:35:11.172Z,2.33
2023-03-02T00:37:38.330Z,2.39
2023-03-02T00:40:07.129Z,2.47
2023-03-02T00:42:33.767Z,2.61
2023-03-02T00:45:01.436Z,2.58
2023-03-02T00:47:29.776Z,2.69
2023-03-02T00:49:56.855Z,2.76
2023-03-02T00:52:23.322Z,2.74
2023-03-02T00:54:50.105Z,2.69
2023-03-02T00:57:16.635Z,2.65
2023-03-02T00:59:43.137Z,2.70
2023-03-02T01:02:10.545Z,2.66
2023-03-02T01:04:42.707Z,2.64
2023-03-02T01:07:14.952Z,2.59
2023-03-02T01:09:43.974Z,2.50
2023-03-02T01:12:11.383Z,2.52
2023-03-02T01:14:39.368Z,2.52
2023-03-02T01:17:07.614Z,2.53
2023-03-02T01:19:34.408Z,2.44
2023-03-02T01:22:00.849Z,2.39
2023-03-02T01:24:27.622Z,2.31
2023-03-02T01:26:54.415Z,2.35
2023-03-02T01:29:21.112Z,2.36
2023-03-02T01:31:47.688Z,2.33
2023-03-02T01:34:14.321Z,2.34
2023-03-02T01:36:40.834Z,2.26
2023-03-02T01:39:07.312Z,2.31
2023-03-02T01:41:33.802Z,2.31
2023-03-02T01:44:00.208Z,2.30
2023-03-02T01:46:29.945Z,2.29
2023-03-02T01:49:03.341Z,2.29
2023-03-02T01:51:34.651Z,2.28
2023-03-02T01:54:08.538Z,2.28
2023-03-02T01:56:39.454Z,2.24
2023-03-02T01:59:11.799Z,2.21
2023-03-02T02:01:40.978Z,2.24
2023-03-02T02:04:07.524Z,2.27
2023-03-02T02:06:46.468Z,2.10
2023-03-02T02:09:16.291Z,2.09
2023-03-02T02:11:44.131Z,1.87
2023-03-02T02:14:10.593Z,2.09
2023-03-02T02:16:37.729Z,2.09
2023-03-02T02:19:25.937Z,2.10
2023-03-02T02:21:52.363Z,2.04
2023-03-02T02:24:24.978Z,1.87
2023-03-02T02:26:56.080Z,1.88
2023-03-02T02:29:30.279Z,1.97
2023-03-02T02:32:20.555Z,1.94
2023-03-02T02:35:02.402Z,1.87
2023-03-02T02:37:38.292Z,1.84
2023-03-02T02:40:09.528Z,1.76
2023-03-02T02:42:41.773Z,1.67
2023-03-02T02:45:19.982Z,1.39
2023-03-02T02:47:47.471Z,1.42
2023-03-02T02:50:24.033Z,1.34
2023-03-02T02:52:58.026Z,1.46
2023-03-02T02:55:25.949Z,1.39
2023-03-02T02:57:56.397Z,1.60
2023-03-02T03:00:23.357Z,1.62
2023-03-02T03:03:06.249Z,1.74
2023-03-02T03:05:32.729Z,1.65
2023-03-02T03:08:49.920Z,1.60
2023-03-02T03:11:23.290Z,1.54
2023-03-02T03:14:21.456Z,1.59
2023-03-02T03:16:50.147Z,1.65
2023-03-02T03:19:25.742Z,1.64
2023-03-02T03:21:55.346Z,1.35
2023-03-02T03:24:23.078Z,1.17
2023-03-02T03:26:50.060Z,1.04
2023-03-02T03:29:18.134Z,1.02
2023-03-02T03:31:45.202Z,0.94
2023-03-02T03:34:11.801Z,0.91
2023-03-02T03:36:38.358Z,1.02
2023-03-02T03:39:06.211Z,1.19
2023-03-02T03:41:32.971Z,1.34
2023-03-02T03:43:59.758Z,1.46
2023-03-02T03:46:26.285Z,1.55
2023-03-02T03:48:52.791Z,1.56
2023-03-02T03:51:19.290Z,1.33
2023-03-02T03:53:45.958Z,1.20
2023-03-02T03:56:12.603Z,1.08
2023-03-02T03:58:39.077Z,1.06
2023-03-02T04:01:07.678Z,0.79
2023-03-02T04:03:34.166Z,0.94
2023-03-02T04:06:00.638Z,0.99
2023-03-02T04:08:27.142Z,1.18
2023-03-02T04:10:53.601Z,1.35
2023-03-02T04:13:20.151Z,1.47
2023-03-02T04:15:47.207Z,1.41
2023-03-02T04:18:13.835Z,1.33
2023-03-02T04:20:40.297Z,1.21
2023-03-02T04:23:06.795Z,1.16
2023-03-02T04:25:33.275Z,1.20
2023-03-02T04:27:59.830Z,1.09
2023-03-02T04:30:26.699Z,1.03
2023-03-02T04:32:53.374Z,0.95
2023-03-02T04:35:20.113Z,1.02
2023-03-02T04:37:47.001Z,1.02
2023-03-02T04:40:14.462Z,1.12
2023-03-02T04:42:41.737Z,1.05
2023-03-02T04:45:08.755Z,1.12
2023-03-02T04:47:35.316Z,0.99
2023-03-02T04:50:01.774Z,0.87
2023-03-02T04:52:28.263Z,0.81
2023-03-02T04:54:54.948Z,1.00
2023-03-02T04:57:21.394Z,0.95
2023-03-02T04:59:47.877Z,0.88
2023-03-02T05:02:14.314Z,0.92
2023-03-02T05:04:42.339Z,0.88
2023-03-02T05:07:09.179Z,0.85
2023-03-02T05:09:35.663Z,1.06
2023-03-02T05:12:02.155Z,0.88
2023-03-02T05:14:29.671Z,0.86
2023-03-02T05:16:56.255Z,0.80
2023-03-02T05:19:22.853Z,0.70
2023-03-02T05:21:49.467Z,0.77
2023-03-02T05:24:16.296Z,0.78
2023-03-02T05:26:42.808Z,0.95
2023-03-02T05:29:09.382Z,1.04
2023-03-02T05:31:41.400Z,0.99
2023-03-02T05:34:10.947Z,0.98
2023-03-02T05:36:37.912Z,0.90
2023-03-02T05:39:05.498Z,0.93
2023-03-02T05:41:31.985Z,0.88
2023-03-02T05:43:58.715Z,0.72
2023-03-02T05:46:25.779Z,0.77
2023-03-02T05:48:52.360Z,0.69
2023-03-02T05:51:18.831Z,0.67
2023-03-02T05:53:45.279Z,0.74
2023-03-02T05:56:11.835Z,0.72
2023-03-02T05:58:38.520Z,0.59
2023-03-02T06:01:08.826Z,0.78
2023-03-02T06:03:35.406Z,0.66
2023-03-02T06:06:01.900Z,0.71
2023-03-02T06:08:28.467Z,0.61
2023-03-02T06:10:57.853Z,0.71
2023-03-02T06:13:24.368Z,0.86
2023-03-02T06:15:50.877Z,0.73
2023-03-02T06:18:17.404Z,0.75
2023-03-02T06:20:44.061Z,0.85
2023-03-02T06:23:11.596Z,0.90
2023-03-02T06:25:39.436Z,0.75
2023-03-02T06:28:05.950Z,0.74
2023-03-02T06:30:32.403Z,0.66
2023-03-02T06:32:59.824Z,0.65
2023-03-02T06:35:26.387Z,0.68
2023-03-02T06:37:52.933Z,0.69
2023-03-02T06:40:21.531Z,0.79
2023-03-02T06:42:48.133Z,0.96
2023-03-02T06:45:14.689Z,0.84
2023-03-02T06:47:41.469Z,0.76
2023-03-02T06:50:09.274Z,0.56
2023-03-02T06:52:35.874Z,0.79
2023-03-02T06:55:03.268Z,0.77
2023-03-02T06:57:33.741Z,0.89
2023-03-02T07:00:10.059Z,0.91
2023-03-02T07:02:37.425Z,0.99
2023-03-02T07:05:05.242Z,1.14
2023-03-02T07:07:31.903Z,1.19
2023-03-02T07:09:58.566Z,1.26
2023-03-02T07:12:25.391Z,1.26
2023-03-02T07:14:51.984Z,1.32
2023-03-02T07:17:18.900Z,1.35
2023-03-02T07:19:45.521Z,1.42
2023-03-02T07:22:12.199Z,1.48
2023-03-02T07:24:38.833Z,1.51
2023-03-02T07:27:05.539Z,1.56
2023-03-02T07:29:32.471Z,1.61
2023-03-02T07:32:02.160Z,1.54
2023-03-02T07:34:28.997Z,1.48
2023-03-02T07:36:55.705Z,1.45
2023-03-02T07:39:22.338Z,1.39
2023-03-02T07:41:49.351Z,1.38
2023-03-02T07:44:16.115Z,1.34
2023-03-02T07:46:42.963Z,1.46
2023-03-02T07:49:09.644Z,1.38
2023-03-02T07:51:36.292Z,1.59
2023-03-02T07:54:04.962Z,1.75
2023-03-02T07:56:31.786Z,1.85
2023-03-02T07:58:58.694Z,1.87
2023-03-02T08:01:25.817Z,1.92
2023-03-02T08:03:53.100Z,1.92
2023-03-02T08:06:20.129Z,1.91
2023-03-02T08:08:47.782Z,1.91
2023-03-02T08:11:17.817Z,1.94
2023-03-02T08:13:45.060Z,2.07
2023-03-02T08:16:13.544Z,2.14
2023-03-02T08:18:41.163Z,2.18
2023-03-02T08:21:16.382Z,2.29
2023-03-02T08:23:43.618Z,2.39
2023-03-02T08:26:13.189Z,2.44
2023-03-02T08:28:40.818Z,2.48
2023-03-02T08:31:08.809Z,2.65
2023-03-02T08:33:36.284Z,2.76
2023-03-02T08:36:16.797Z,2.86
2023-03-02T08:38:44.043Z,3.00
2023-03-02T08:41:17.456Z,3.13
2023-03-02T08:43:44.438Z,3.15
2023-03-02T08:46:13.099Z,3.23
2023-03-02T08:48:40.208Z,3.35
2023-03-02T08:51:10.322Z,3.44
2023-03-02T08:53:39.821Z,3.55
2023-03-02T08:56:16.430Z,3.68
2023-03-02T08:58:43.413Z,3.75
2023-03-02T09:01:24.559Z,3.77
2023-03-02T09:03:51.910Z,3.83
2023-03-02T09:06:18.959Z,3.86
2023-03-02T09:08:45.654Z,3.95
2023-03-02T09:11:12.496Z,3.95
2023-03-02T09:13:39.601Z,3.97
2023-03-02T09:16:08.391Z,4.00
2023-03-02T09:18:35.930Z,4.07
2023-03-02T09:21:02.969Z,4.11
2023-03-02T09:23:29.631Z,4.27
2023-03-02T09:25:56.341Z,4.29
2023-03-02T09:28:23.117Z,4.40
2023-03-02T09:30:52.189Z,4.47
2023-03-02T09:33:19.782Z,4.54
2023-03-02T09:35:47.493Z,4.59
2023-03-02T09:38:18.483Z,4.54
2023-03-02T09:41:19.390Z,4.62
2023-03-02T09:43:55.590Z,4.62
2023-03-02T09:46:51.563Z,4.69
2023-03-02T09:49:28.624Z,4.73
2023-03-02T09:52:22.181Z,4.82
2023-03-02T09:54:48.836Z,4.82
2023-03-02T09:57:38.449Z,4.84
2023-03-02T10:00:19.106Z,4.93
2023-03-02T10:02:46.755Z,4.95
2023-03-02T10:05:18.743Z,4.90
2023-03-02T10:07:47.349Z,4.90
2023-03-02T10:10:29.194Z,5.00
2023-03-02T10:13:22.020Z,5.13
2023-03-02T10:16:28.531Z,5.27
2023-03-02T10:19:07.742Z,5.42
2023-03-02T10:21:39.705Z,5.46
2023-03-02T10:24:47.140Z,5.57
2023-03-02T10:27:34.624Z,5.57
2023-03-02T10:30:06.262Z,5.61
2023-03-02T10:32:38.024Z,5.73
2023-03-02T10:35:16.122Z,5.70
2023-03-02T10:37:42.927Z,5.66
2023-03-02T10:40:40.768Z,5.68
2023-03-02T10:43:15.261Z,5.75
2023-03-02T10:45:42.057Z,5.79
2023-03-02T10:48:12.835Z,5.89
2023-03-02T10:50:39.907Z,5.96
2023-03-02T10:53:08.622Z,6.10
2023-03-02T10:55:35.346Z,6.13
2023-03-02T10:58:18.906Z,6.19
2023-03-02T11:00:56.024Z,6.13
2023-03-02T11:03:23.720Z,6.23
2023-03-02T11:05:50.524Z,6.25
2023-03-02T11:08:20.434Z,6.20
2023-03-02T11:11:02.041Z,6.20
2023-03-02T11:13:34.741Z,6.43
2023-03-02T11:16:03.265Z,6.58
2023-03-02T11:18:44.621Z,6.79
2023-03-02T11:21:19.895Z,7.01
2023-03-02T11:23:57.708Z,7.12
2023-03-02T11:26:33.642Z,7.09
2023-03-02T11:29:05.196Z,7.07
2023-03-02T11:31:40.672Z,7.17
2023-03-02T11:34:35.683Z,7.32
2023-03-02T11:37:23.823Z,7.35
2023-03-02T11:39:55.340Z,7.30
2023-03-02T11:42:30.703Z,7.31
2023-03-02T11:45:01.833Z,7.34
2023-03-02T11:47:31.579Z,7.37
2023-03-02T11:50:03.661Z,7.48
2023-03-02T11:52:33.651Z,7.57
2023-03-02T11:55:12.272Z,7.75
2023-03-02T11:58:05.464Z,7.81
2023-03-02T12:00:42.346Z,7.82
2023-03-02T12:03:14.827Z,7.93
2023-03-02T12:05:47.179Z,8.15
2023-03-02T12:08:19.858Z,8.27
2023-03-02T12:10:56.966Z,8.38
2023-03-02T12:13:34.020Z,8.38
2023-03-02T12:16:01.039Z,8.33
2023-03-02T12:18:40.785Z,8.44
2023-03-02T12:21:17.172Z,8.53
2023-03-02T12:23:49.764Z,8.72
2023-03-02T12:26:19.213Z,8.74
2023-03-02T12:29:00.494Z,8.53
2023-03-02T12:31:39.349Z,8.76
2023-03-02T12:34:25.929Z,8.69
2023-03-02T12:36:57.877Z,8.71
2023-03-02T12:39:41.463Z,8.87
2023-03-02T12:42:41.155Z,8.98
2023-03-02T12:45:26.452Z,9.12
2023-03-02T12:48:02.498Z,9.09
2023-03-02T12:50:33.815Z,9.16
2023-03-02T12:53:03.118Z,9.22
2023-03-02T12:55:29.841Z,9.18
2023-03-02T12:58:01.583Z,9.12
2023-03-02T13:00:34.241Z,9.16
2023-03-02T13:03:09.643Z,9.31
2023-03-02T13:05:36.267Z,9.40
2023-03-02T13:08:04.524Z,9.61
2023-03-02T13:10:42.949Z,9.62
2023-03-02T13:13:26.138Z,9.60
2023-03-02T13:15:59.060Z,9.59
2023-03-02T13:18:31.890Z,9.58
2023-03-02T13:21:00.157Z,9.52
2023-03-02T13:23:28.235Z,9.62
2023-03-02T13:26:05.523Z,9.68
2023-03-02T13:28:38.237Z,9.70
2023-03-02T13:31:25.333Z,9.92
2023-03-02T13:33:53.660Z,9.92
2023-03-02T13:36:30.563Z,9.94
2023-03-02T13:38:59.560Z,10.02
2023-03-02T13:41:34.318Z,10.18
2023-03-02T13:44:17.091Z,10.02
2023-03-02T13:46:43.675Z,10.37
2023-03-02T13:49:11.525Z,10.31
2023-03-02T13:51:47.126Z,10.33
2023-03-02T13:54:22.466Z,10.30
2023-03-02T13:56:50.951Z,10.38
2023-03-02T13:59:19.327Z,10.36
2023-03-02T14:01:46.821Z,10.41
2023-03-02T14:04:14.992Z,10.46
2023-03-02T14:06:41.513Z,10.51
2023-03-02T14:09:07.975Z,10.60
2023-03-02T14:11:38.539Z,10.69
2023-03-02T14:14:06.301Z,10.72
2023-03-02T14:16:35.964Z,10.83
2023-03-02T14:19:03.495Z,10.75
2023-03-02T14:21:30.192Z,10.78
2023-03-02T14:23:58.829Z,10.73
2023-03-02T14:26:38.325Z,10.70
2023-03-02T14:29:09.926Z,10.85
2023-03-02T14:31:36.527Z,10.93
2023-03-02T14:34:03.183Z,10.88
2023-03-02T14:36:33.547Z,10.90
2023-03-02T14:39:04.323Z,11.05
2023-03-02T14:41:34.399Z,11.01
2023-03-02T14:44:04.930Z,10.90
2023-03-02T14:46:31.593Z,10.92
2023-03-02T14:48:58.186Z,10.96
2023-03-02T14:51:28.215Z,11.10
2023-03-02T14:53:58.934Z,11.09
2023-03-02T14:56:25.654Z,11.24
2023-03-02T14:58:53.289Z,11.23
2023-03-02T15:01:20.539Z,11.24
2023-03-02T15:03:47.280Z,11.12
2023-03-02T15:06:26.765Z,11.21
2023-03-02T15:08:54.064Z,11.17
2023-03-02T15:11:20.603Z,11.17
2023-03-02T15:13:47.351Z,11.26
2023-03-02T15:16:14.196Z,11.28
2023-03-02T15:18:41.080Z,11.19
2023-03-02T15:21:20.502Z,11.19
2023-03-02T15:23:46.890Z,11.11
2023-03-02T15:26:14.321Z,11.02
2023-03-02T15:28:41.420Z,11.05
2023-03-02T15:31:14.262Z,11.03
2023-03-02T15:33:41.687Z,11.18
2023-03-02T15:36:08.737Z,11.18
2023-03-02T15:38:36.610Z,11.14
2023-03-02T15:41:07.874Z,11.18
2023-03-02T15:43:34.375Z,11.09
2023-03-02T15:46:02.228Z,11.05
2023-03-02T15:48:29.889Z,11.13
2023-03-02T15:51:00.812Z,11.17
2023-03-02T15:53:29.101Z,11.14
2023-03-02T15:55:56.116Z,11.14
2023-03-02T15:58:22.967Z,11.11
2023-03-02T16:00:50.024Z,11.05
2023-03-02T16:03:16.917Z,11.01
2023-03-02T16:05:43.441Z,10.99
2023-03-02T16:08:09.970Z,10.95
2023-03-02T16:10:36.684Z,10.93
2023-03-02T16:13:04.877Z,10.97
2023-03-02T16:15:36.979Z,10.91
2023-03-02T16:18:03.479Z,10.83
2023-03-02T16:20:29.988Z,10.84
2023-03-02T16:22:56.472Z,10.79
2023-03-02T16:25:24.816Z,10.78
2023-03-02T16:27:53.397Z,10.80
2023-03-02T16:30:22.790Z,10.59
2023-03-02T16:32:49.861Z,10.77
2023-03-02T16:35:16.350Z,10.73
2023-03-02T16:37:44.328Z,10.70
2023-03-02T16:40:12.616Z,10.64
2023-03-02T16:42:40.954Z,10.62
2023-03-02T16:45:07.979Z,10.54
2023-03-02T16:47:34.456Z,10.50
2023-03-02T16:50:01.018Z,10.45
2023-03-02T16:52:27.536Z,10.38
2023-03-02T16:54:54.033Z,10.34
2023-03-02T16:57:20.512Z,10.28
2023-03-02T16:59:47.219Z,10.24
2023-03-02T17:02:13.709Z,10.20
2023-03-02T17:04:40.486Z,10.18
2023-03-02T17:07:07.696Z,10.15
2023-03-02T17:09:36.031Z,10.08
2023-03-02T17:12:02.606Z,10.05
2023-03-02T17:14:29.215Z,9.97
2023-03-02T17:16:59.148Z,9.96
2023-03-02T17:19:29.726Z,9.91
2023-03-02T17:21:58.247Z,9.89
2023-03-02T17:24:25.040Z,9.84
2023-03-02T17:26:51.512Z,9.80
2023-03-02T17:29:18.102Z,9.74
2023-03-02T17:31:44.934Z,9.70
2023-03-02T17:34:11.950Z,9.67
2023-03-02T17:36:38.554Z,9.65
2023-03-02T17:39:05.491Z,9.60
2023-03-02T17:41:33.070Z,9.57
2023-03-02T17:44:00.517Z,9.49
2023-03-02T17:46:27.819Z,9.50
2023-03-02T17:48:56.902Z,9.44
2023-03-02T17:51:25.775Z,9.41
2023-03-02T17:53:53.639Z,9.36
2023-03-02T17:56:22.854Z,9.32
2023-03-02T17:59:00.650Z,9.27
2023-03-02T18:01:28.581Z,9.23
2023-03-02T18:03:55.701Z,9.23
2023-03-02T18:06:22.351Z,9.17
2023-03-02T18:08:50.400Z,9.13
2023-03-02T18:11:19.890Z,9.09
2023-03-02T18:13:46.684Z,9.07
2023-03-02T18:16:13.268Z,9.03
2023-03-02T18:18:39.763Z,8.98
2023-03-02T18:21:06.784Z,8.97
2023-03-02T18:23:33.685Z,8.92
2023-03-02T18:26:00.136Z,8.94
2023-03-02T18:28:26.654Z,8.90
2023-03-02T18:30:53.213Z,8.85
2023-03-02T18:33:19.827Z,8.84
2023-03-02T18:35:46.303Z,8.78
2023-03-02T18:38:12.770Z,8.75
2023-03-02T18:40:39.353Z,8.73
2023-03-02T18:43:05.850Z,8.70
2023-03-02T18:45:32.699Z,8.64
2023-03-02T18:48:00.218Z,8.60
2023-03-02T18:50:27.996Z,8.56
2023-03-02T18:52:54.744Z,8.46
2023-03-02T18:55:23.005Z,8.51
2023-03-02T18:57:49.690Z,8.45
2023-03-02T19:00:19.310Z,8.41
2023-03-02T19:02:45.862Z,8.43
2023-03-02T19:05:12.444Z,8.39
2023-03-02T19:07:38.995Z,8.38
2023-03-02T19:10:07.436Z,8.37
2023-03-02T19:12:37.629Z,8.30
2023-03-02T19:15:05.631Z,8.28
2023-03-02T19:17:32.341Z,8.29
2023-03-02T19:19:58.820Z,8.23
2023-03-02T19:22:25.324Z,8.13
2023-03-02T19:24:51.989Z,8.09
2023-03-02T19:27:18.523Z,7.90
2023-03-02T19:29:45.051Z,7.82
2023-03-02T19:32:14.524Z,7.75
2023-03-02T19:34:42.499Z,7.76
2023-03-02T19:37:08.928Z,7.70
2023-03-02T19:39:35.498Z,7.78
2023-03-02T19:42:02.044Z,7.84
2023-03-02T19:44:28.593Z,7.86
2023-03-02T19:46:55.043Z,7.86
2023-03-02T19:49:21.643Z,7.80
2023-03-02T19:51:48.175Z,7.79
2023-03-02T19:54:14.709Z,7.81
2023-03-02T19:56:43.367Z,7.80
2023-03-02T19:59:11.084Z,7.78
2023-03-02T20:01:37.608Z,7.73
2023-03-02T20:04:04.277Z,7.70
2023-03-02T20:06:33.683Z,7.63
2023-03-02T20:09:02.338Z,7.59
2023-03-02T20:11:30.617Z,7.54
2023-03-02T20:14:02.005Z,7.53
2023-03-02T20:16:31.494Z,7.38
2023-03-02T20:18:58.482Z,7.26
2023-03-02T20:21:27.913Z,7.14
2023-03-02T20:23:54.494Z,7.22
2023-03-02T20:26:22.329Z,7.32
2023-03-02T20:28:48.933Z,7.36
2023-03-02T20:31:16.136Z,7.35
2023-03-02T20:33:47.041Z,7.28
2023-03-02T20:36:16.605Z,7.15
2023-03-02T20:38:48.112Z,7.07
2023-03-02T20:41:15.843Z,7.00
2023-03-02T20:43:42.482Z,6.87
2023-03-02T20:46:12.780Z,6.90
2023-03-02T20:48:39.482Z,7.00
2023-03-02T20:51:06.330Z,7.00
2023-03-02T20:53:32.931Z,6.97
2023-03-02T20:55:59.439Z,6.96
2023-03-02T20:58:26.085Z,6.96
2023-03-02T21:00:53.767Z,6.97
2023-03-02T21:03:20.262Z,6.90
2023-03-02T21:05:47.243Z,6.85
2023-03-02T21:08:14.817Z,6.80
2023-03-02T21:10:43.308Z,6.79
2023-03-02T21:13:11.746Z,6.68
2023-03-02T21:15:38.460Z,6.71
2023-03-02T21:18:05.274Z,6.74
2023-03-02T21:20:35.685Z,6.68
2023-03-02T21:23:03.022Z,6.70
2023-03-02T21:25:29.518Z,6.73
2023-03-02T21:27:56.809Z,6.72
2023-03-02T21:30:27.562Z,6.60
2023-03-02T21:32:54.487Z,6.49
2023-03-02T21:35:23.232Z,6.35
2023-03-02T21:37:52.753Z,6.17
2023-03-02T21:40:25.327Z,6.16
2023-03-02T21:42:52.706Z,6.22
2023-03-02T21:45:19.540Z,6.28
2023-03-02T21:47:46.638Z,6.25
2023-03-02T21:50:17.053Z,6.24
2023-03-02T21:52:43.644Z,6.15
2023-03-02T21:55:11.443Z,5.92
2023-03-02T21:57:37.939Z,5.80
2023-03-02T22:00:05.432Z,5.66
2023-03-02T22:02:32.681Z,5.56
2023-03-02T22:04:59.230Z,5.48
2023-03-02T22:07:25.803Z,5.39
2023-03-02T22:09:52.687Z,5.27
2023-03-02T22:12:22.414Z,5.19
2023-03-02T22:14:49.155Z,5.20
2023-03-02T22:17:21.420Z,5.23
2023-03-02T22:19:48.809Z,5.13
2023-03-02T22:22:23.999Z,5.05
2023-03-02T22:24:53.944Z,4.96
2023-03-02T22:27:26.765Z,4.85
2023-03-02T22:29:57.664Z,4.80
2023-03-02T22:32:29.503Z,4.74
2023-03-02T22:34:58.828Z,4.68
2023-03-02T22:37:29.223Z,4.66
2023-03-02T22:40:06.743Z,4.60
2023-03-02T22:42:33.570Z,4.58
2023-03-02T22:45:12.841Z,4.50
2023-03-02T22:47:39.540Z,4.57
2023-03-02T22:50:28.288Z,4.49
2023-03-02T22:52:56.208Z,4.45
2023-03-02T22:55:39.756Z,4.29
2023-03-02T22:58:25.342Z,4.42
2023-03-02T23:00:52.123Z,4.31
2023-03-02T23:03:40.619Z,4.20
2023-03-02T23:06:23.362Z,4.18
2023-03-02T23:08:51.626Z,4.18
2023-03-02T23:11:21.696Z,4.14
2023-03-02T23:13:49.306Z,4.16
2023-03-02T23:16:27.449Z,4.14
2023-03-02T23:18:59.230Z,4.13
2023-03-02T23:21:38.348Z,4.11
2023-03-02T23:24:07.167Z,4.06
2023-03-02T23:26:33.839Z,4.13
2023-03-02T23:29:00.925Z,4.37
2023-03-02T23:31:27.479Z,4.37
2023-03-02T23:33:54.199Z,4.40
2023-03-02T23:36:20.968Z,4.30
2023-03-02T23:38:50.920Z,4.22
2023-03-02T23:41:18.158Z,4.16
2023-03-02T23:43:44.668Z,4.14
2023-03-02T23:46:14.426Z,4.21
2023-03-02T23:48:42.583Z,4.08
2023-03-02T23:51:10.245Z,4.10
2023-03-02T23:53:36.753Z,4.07
2023-03-02T23:56:03.381Z,3.99
2023-03-02T23:58:29.912Z,4.17
